Time;durP1;ratioP1;P1;durP2;ratioP2;P2;SDS_P1;SDS_P2;PMS_P1;PMS_P2;Temp;Humidity;BMP_temperature;BMP_pressure;BME280_temperature;BME280_humidity;BME280_pressure;Samples;Min_cycle;Max_cycle;Signal;HPM_P1;HPM_P2
2023/10/17 00:02:10;;;;;;;79.57;64.82;;;6.60;99.90;;;;;;5079177;28;20161;-79
2023/10/17 00:04:38;;;;;;;80.00;66.20;;;6.60;99.90;;;;;;5078705;28;20149;-80
2023/10/17 00:07:03;;;;;;;80.28;67.97;;;6.70;99.90;;;;;;5079423;28;20200;-80
2023/10/17 00:09:36;;;;;;;78.97;63.73;;;6.60;99.90;;;;;;5079510;28;20160;-80
2023/10/17 00:12:14;;;;;;;78.85;62.20;;;6.50;99.90;;;;;;5078433;28;20219;-80
2023/10/17 00:17:19;;;;;;;77.22;58.47;;;6.50;99.90;;;;;;5078621;28;20149;-80
2023/10/17 00:19:45;;;;;;;77.80;56.50;;;6.50;99.90;;;;;;5079116;28;20179;-80
2023/10/17 00:22:17;;;;;;;82.40;65.93;;;6.40;99.90;;;;;;5079056;28;20687;-79
2023/10/17 00:24:46;;;;;;;78.75;62.53;;;6.30;99.90;;;;;;5079235;28;20553;-80
2023/10/17 00:27:12;;;;;;;80.07;66.97;;;6.30;99.90;;;;;;5079012;28;20188;-80
2023/10/17 00:29:38;;;;;;;82.55;70.18;;;6.20;99.90;;;;;;5079138;28;20170;-79
2023/10/17 00:32:04;;;;;;;80.77;65.63;;;6.30;99.90;;;;;;5078776;28;20200;-79
2023/10/17 00:34:29;;;;;;;83.10;68.60;;;6.20;99.90;;;;;;5082512;28;20247;-79
2023/10/17 00:39:36;;;;;;;79.03;58.38;;;6.10;99.90;;;;;;5086407;28;20149;-80
2023/10/17 00:44:41;;;;;;;79.70;62.80;;;6.00;99.90;;;;;;5086009;28;20165;-80
2023/10/17 00:47:08;;;;;;;76.13;56.22;;;6.10;99.90;;;;;;5085443;28;20140;-80
2023/10/17 00:49:42;;;;;;;78.68;64.78;;;6.00;99.90;;;;;;5085385;28;20259;-80
2023/10/17 00:52:19;;;;;;;79.55;62.40;;;6.00;99.90;;;;;;5084727;28;20181;-79
2023/10/17 00:54:46;;;;;;;78.07;61.13;;;6.00;99.90;;;;;;5085284;28;20176;-80
2023/10/17 00:57:14;;;;;;;83.13;66.10;;;6.10;99.90;;;;;;5085479;28;20175;-80
2023/10/17 00:59:50;;;;;;;79.63;63.03;;;6.10;99.90;;;;;;5067259;28;20165;-80
2023/10/17 01:02:20;;;;;;;77.80;63.58;;;6.00;99.90;;;;;;5085427;28;20172;-80
2023/10/17 01:04:46;;;;;;;82.60;62.28;;;6.00;99.90;;;;;;5084761;28;20149;-80
2023/10/17 01:07:25;;;;;;;81.27;64.03;;;6.00;99.90;;;;;;5084834;28;20171;-80
2023/10/17 01:10:10;;;;;;;77.07;61.78;;;5.90;99.90;;;;;;5085329;28;20513;-80
2023/10/17 01:12:41;;;;;;;81.38;62.35;;;6.00;99.90;;;;;;5084631;28;20298;-80
2023/10/17 01:15:07;;;;;;;77.65;58.67;;;6.00;99.90;;;;;;5084800;28;20188;-80
2023/10/17 01:17:35;;;;;;;81.50;64.90;;;5.90;99.90;;;;;;5087892;28;20161;-80
2023/10/17 01:20:08;;;;;;;82.90;65.85;;;5.80;99.90;;;;;;5088855;28;20160;-79
2023/10/17 01:22:41;;;;;;;77.95;60.05;;;5.90;99.90;;;;;;5086485;28;20188;-79
2023/10/17 01:25:19;;;;;;;81.93;71.97;;;5.80;99.90;;;;;;5082581;28;20187;-79
2023/10/17 01:27:45;;;;;;;77.63;59.33;;;5.90;99.90;;;;;;5082188;28;20170;-79
2023/10/17 01:30:11;;;;;;;81.53;70.47;;;5.90;99.90;;;;;;5082407;28;20228;-79
2023/10/17 01:32:37;;;;;;;78.82;65.82;;;6.00;99.90;;;;;;5082235;28;20515;-79
2023/10/17 01:35:03;;;;;;;79.47;66.93;;;6.00;99.90;;;;;;5081941;28;20192;-80
2023/10/17 01:37:28;;;;;;;82.90;71.63;;;6.10;99.90;;;;;;5064572;28;20580;-79
2023/10/17 01:39:54;;;;;;;84.03;74.20;;;6.20;99.90;;;;;;5082126;28;20919;-79
2023/10/17 01:42:20;;;;;;;79.90;67.20;;;6.20;99.90;;;;;;5082024;28;20204;-79
2023/10/17 01:44:45;;;;;;;82.03;67.73;;;6.10;99.90;;;;;;5082276;28;20178;-80
2023/10/17 01:47:11;;;;;;;79.17;67.57;;;6.20;99.90;;;;;;5064496;28;20168;-79
2023/10/17 01:49:37;;;;;;;81.23;67.10;;;6.20;99.90;;;;;;5082515;28;20164;-80
2023/10/17 01:52:03;;;;;;;81.60;66.37;;;6.10;99.90;;;;;;5082000;28;20738;-80
2023/10/17 01:54:29;;;;;;;76.82;60.05;;;6.20;99.90;;;;;;5063071;28;20164;-79
2023/10/17 01:57:05;;;;;;;82.07;68.83;;;6.10;99.90;;;;;;5063465;28;20584;-79
2023/10/17 01:59:34;;;;;;;81.00;68.65;;;6.20;99.90;;;;;;5081639;28;20148;-80
2023/10/17 02:02:03;;;;;;;89.55;71.75;;;6.20;99.90;;;;;;5063464;28;20251;-80
2023/10/17 02:04:30;;;;;;;81.60;72.80;;;6.20;99.90;;;;;;5082028;28;20528;-80
2023/10/17 02:06:56;;;;;;;84.50;60.03;;;6.30;99.90;;;;;;5081726;28;20198;-80
2023/10/17 02:12:00;;;;;;;79.43;67.68;;;6.40;99.90;;;;;;5092707;28;20149;-80
2023/10/17 02:14:26;;;;;;;82.53;71.15;;;6.30;99.90;;;;;;5069529;28;20160;-80
2023/10/17 02:16:52;;;;;;;83.45;71.80;;;6.30;99.90;;;;;;5087791;28;20160;-80
2023/10/17 02:19:31;;;;;;;80.75;61.50;;;6.30;99.90;;;;;;5070573;28;20187;-80
2023/10/17 02:21:58;;;;;;;84.25;74.97;;;6.30;99.90;;;;;;5069798;28;20168;-80
2023/10/17 02:24:25;;;;;;;81.50;69.28;;;6.30;99.90;;;;;;5086916;28;20180;-80
2023/10/17 02:26:56;;;;;;;87.10;71.07;;;6.40;99.90;;;;;;5086828;28;20161;-80
2023/10/17 02:29:26;;;;;;;80.40;68.05;;;6.40;99.90;;;;;;5085304;28;20145;-80
2023/10/17 02:31:55;;;;;;;80.22;66.03;;;6.40;99.90;;;;;;5086925;28;20206;-80
2023/10/17 02:34:22;;;;;;;87.07;74.43;;;6.40;99.90;;;;;;5086673;28;20164;-80
2023/10/17 02:36:52;;;;;;;80.00;67.07;;;6.30;99.90;;;;;;5086151;28;20211;-80
2023/10/17 02:39:20;;;;;;;79.97;64.70;;;6.30;99.90;;;;;;5086830;28;20173;-80
2023/10/17 02:41:46;;;;;;;81.72;70.43;;;6.40;99.90;;;;;;5086331;28;20152;-80
2023/10/17 02:44:19;;;;;;;77.78;63.08;;;6.40;99.90;;;;;;5086209;28;20160;-80
2023/10/17 02:46:45;;;;;;;79.75;66.43;;;6.40;99.90;;;;;;5085955;28;20149;-80
2023/10/17 02:49:16;;;;;;;79.45;66.18;;;6.40;99.90;;;;;;5067723;28;20259;-80
2023/10/17 02:51:42;;;;;;;85.25;68.45;;;6.40;99.90;;;;;;5086220;28;20194;-80
2023/10/17 02:54:13;;;;;;;77.97;59.20;;;6.30;99.90;;;;;;5085725;28;20184;-80
2023/10/17 02:56:46;;;;;;;79.38;63.22;;;6.40;99.90;;;;;;5085115;28;20192;-80
2023/10/17 02:59:12;;;;;;;81.70;70.97;;;6.40;99.90;;;;;;5064693;28;20168;-79
2023/10/17 03:01:42;;;;;;;79.57;65.65;;;6.40;99.90;;;;;;5080135;28;20192;-79
2023/10/17 03:04:12;;;;;;;81.30;71.60;;;6.40;99.90;;;;;;5080063;28;20191;-80
2023/10/17 03:06:43;;;;;;;82.47;72.22;;;6.40;99.90;;;;;;5079705;28;20183;-80
2023/10/17 03:11:51;;;;;;;79.30;68.82;;;6.30;99.90;;;;;;5080123;28;20594;-79
2023/10/17 03:14:19;;;;;;;78.72;66.95;;;6.30;99.90;;;;;;5061663;28;20173;-79
2023/10/17 03:16:54;;;;;;;79.80;67.47;;;6.30;99.90;;;;;;5061444;28;20186;-80
2023/10/17 03:19:27;;;;;;;79.30;61.22;;;6.30;99.90;;;;;;5079715;28;20145;-80
2023/10/17 03:22:24;;;;;;;79.22;66.88;;;6.20;99.90;;;;;;5079367;28;20522;-79
2023/10/17 03:25:18;;;;;;;86.57;63.63;;;6.30;99.90;;;;;;5040258;28;1140514;-79
2023/10/17 03:27:49;;;;;;;79.03;64.30;;;6.30;99.90;;;;;;5080644;28;20156;-79
2023/10/17 03:30:19;;;;;;;76.35;62.20;;;6.30;99.90;;;;;;5061953;28;20161;-79
2023/10/17 03:35:24;;;;;;;77.75;60.95;;;6.20;99.90;;;;;;5080294;28;20654;-80
2023/10/17 03:37:50;;;;;;;81.43;66.60;;;6.20;99.90;;;;;;5080763;28;20164;-80
2023/10/17 03:40:18;;;;;;;76.95;56.95;;;6.20;99.90;;;;;;5061948;28;20168;-80
2023/10/17 03:42:46;;;;;;;85.90;73.15;;;6.20;99.90;;;;;;5079868;28;20180;-80
2023/10/17 03:45:23;;;;;;;82.70;71.80;;;6.20;99.90;;;;;;5080539;28;20164;-79
2023/10/17 03:47:56;;;;;;;78.03;63.83;;;6.30;99.90;;;;;;5090950;28;20151;-80
2023/10/17 03:55:50;;;;;;;82.97;61.30;;;6.20;99.90;;;;;;5086991;28;20200;-80
2023/10/17 04:00:46;;;;;;;75.82;62.58;;;6.20;99.90;;;;;;5085970;28;20147;-80
2023/10/17 04:06:00;;;;;;;76.97;61.50;;;6.30;99.90;;;;;;5086095;28;20157;-80
2023/10/17 04:08:31;;;;;;;80.85;71.25;;;6.30;99.90;;;;;;5086414;28;20149;-80
2023/10/17 04:11:25;;;;;;;81.18;72.22;;;6.20;99.90;;;;;;5086395;28;20145;-80
2023/10/17 04:13:56;;;;;;;82.68;73.85;;;6.30;99.90;;;;;;5085651;28;20184;-80
2023/10/17 04:16:33;;;;;;;80.32;71.50;;;6.30;99.90;;;;;;5067809;28;20188;-79
2023/10/17 04:19:18;;;;;;;82.50;69.13;;;6.30;99.90;;;;;;5085680;28;20144;-80
2023/10/17 04:24:27;;;;;;;79.00;65.38;;;6.20;99.90;;;;;;5085721;28;20176;-80
2023/10/17 04:27:05;;;;;;;77.25;64.75;;;6.20;99.90;;;;;;5086551;28;20145;-80
2023/10/17 04:29:32;;;;;;;80.60;65.63;;;6.20;99.90;;;;;;5085247;28;20140;-80
2023/10/17 04:32:00;;;;;;;82.65;70.72;;;6.20;99.90;;;;;;5085520;28;20552;-80
2023/10/17 04:34:27;;;;;;;77.78;63.65;;;6.30;99.90;;;;;;5083032;28;20157;-79
2023/10/17 04:36:55;;;;;;;79.47;69.78;;;6.30;99.90;;;;;;5079484;28;20168;-79
2023/10/17 04:44:21;;;;;;;80.40;67.65;;;6.40;99.90;;;;;;5079859;28;20163;-79
2023/10/17 04:46:50;;;;;;;81.93;66.53;;;6.40;99.90;;;;;;5061634;28;20160;-80
2023/10/17 04:49:21;;;;;;;84.30;69.68;;;6.40;99.90;;;;;;5080531;28;20165;-79
2023/10/17 04:52:02;;;;;;;83.65;73.28;;;6.40;99.90;;;;;;5081155;28;20160;-80
2023/10/17 04:54:39;;;;;;;79.72;70.22;;;6.40;99.90;;;;;;5083290;28;20235;-79
2023/10/17 04:57:07;;;;;;;77.85;65.05;;;6.50;99.90;;;;;;5083959;28;20250;-79
2023/10/17 06:18:57;;;;;;;92.13;76.35;;;6.60;99.90;;;;;;5082224;28;20635;-79
2023/10/17 06:21:35;;;;;;;90.25;76.47;;;6.60;99.90;;;;;;5082622;28;20176;-79
2023/10/17 06:24:18;;;;;;;94.10;82.40;;;6.70;99.90;;;;;;5082127;28;20202;-79
2023/10/17 06:26:46;;;;;;;86.00;74.30;;;6.70;99.90;;;;;;5081617;28;20152;-79
2023/10/17 06:32:15;;;;;;;88.75;78.22;;;6.80;99.90;;;;;;5083038;28;20164;-79
2023/10/17 06:34:44;;;;;;;95.38;84.57;;;6.80;99.90;;;;;;5065852;28;20179;-79
2023/10/17 06:37:11;;;;;;;96.65;86.70;;;6.90;99.90;;;;;;5083024;28;20168;-79
2023/10/17 06:39:49;;;;;;;99.03;88.30;;;6.90;99.90;;;;;;5084417;28;20196;-79
2023/10/17 06:42:16;;;;;;;90.97;81.55;;;7.00;99.90;;;;;;5067997;28;20188;-79
2023/10/17 06:44:54;;;;;;;84.72;73.82;;;7.10;99.90;;;;;;5084818;28;20168;-79
2023/10/17 06:51:15;;;;;;;88.25;74.75;;;7.00;99.90;;;;;;5065644;28;20210;-79
2023/10/17 06:53:04;;;;;;;82.18;72.45;;;7.10;99.90;;;;;;5067778;28;20215;-78
2023/10/17 06:55:42;;;;;;;83.90;73.63;;;7.00;99.90;;;;;;5082014;28;20185;-79
2023/10/17 06:58:11;;;;;;;81.63;69.63;;;7.10;99.90;;;;;;5087760;28;20152;-78
2023/10/17 07:00:51;;;;;;;90.43;80.07;;;7.10;99.90;;;;;;5090112;28;20180;-79
2023/10/17 07:03:25;;;;;;;98.78;88.90;;;7.20;99.90;;;;;;5086856;28;20191;-79
2023/10/17 07:05:51;;;;;;;97.43;84.47;;;7.20;99.90;;;;;;5070455;28;20156;-79
2023/10/17 07:08:36;;;;;;;117.85;106.63;;;7.30;99.90;;;;;;5069079;28;20246;-79
2023/10/17 07:11:24;;;;;;;108.45;98.18;;;7.30;99.90;;;;;;5085983;28;20164;-79
2023/10/17 07:16:33;;;;;;;114.80;104.03;;;7.40;99.90;;;;;;5086140;28;20196;-79
2023/10/17 07:24:35;;;;;;;103.75;93.63;;;7.60;99.90;;;;;;5085964;28;20230;-79
2023/10/17 07:27:03;;;;;;;111.18;100.63;;;7.70;99.90;;;;;;5087747;28;20153;-79
2023/10/17 07:29:36;;;;;;;144.25;132.90;;;7.70;99.90;;;;;;5087854;28;20165;-79
2023/10/17 07:32:09;;;;;;;126.90;115.57;;;7.80;99.90;;;;;;5087465;28;20141;-79
2023/10/17 07:34:35;;;;;;;151.15;139.20;;;7.90;99.90;;;;;;5087991;28;20163;-79
2023/10/17 07:37:22;;;;;;;162.47;150.00;;;7.90;99.90;;;;;;5069381;28;20641;-78
2023/10/17 07:42:40;;;;;;;146.95;135.27;;;7.90;99.90;;;;;;5061853;28;20279;-79
2023/10/17 07:45:14;;;;;;;175.82;162.95;;;7.90;99.90;;;;;;5082415;28;20164;-78
2023/10/17 07:47:51;;;;;;;150.40;138.20;;;7.90;99.90;;;;;;5082006;28;20148;-79
2023/10/17 07:50:17;;;;;;;164.68;152.35;;;8.00;99.90;;;;;;5063808;28;20172;-79
2023/10/17 07:52:50;;;;;;;185.75;172.55;;;8.10;99.90;;;;;;5080980;28;20184;-79
2023/10/17 07:55:18;;;;;;;158.90;146.80;;;8.20;99.90;;;;;;5081241;28;20180;-79
2023/10/17 07:57:46;;;;;;;158.00;145.82;;;8.30;99.90;;;;;;5081530;28;20157;-79
2023/10/17 08:03:27;;;;;;;141.95;129.75;;;8.50;99.90;;;;;;5081612;28;20194;-79
2023/10/17 08:08:46;;;;;;;104.68;94.32;;;8.40;99.90;;;;;;5050138;28;20177;-79
2023/10/17 08:11:26;;;;;;;131.63;120.65;;;8.40;99.90;;;;;;5081785;28;20183;-79
2023/10/17 08:13:57;;;;;;;101.05;90.85;;;8.50;99.90;;;;;;5082073;28;20192;-78
2023/10/17 08:16:29;;;;;;;120.20;109.22;;;8.50;99.90;;;;;;5081742;28;20210;-79
2023/10/17 08:19:14;;;;;;;91.60;82.20;;;8.50;99.90;;;;;;5082744;28;20153;-79
2023/10/17 08:21:49;;;;;;;93.40;82.20;;;8.60;99.90;;;;;;5082897;28;20194;-79
2023/10/17 08:24:26;;;;;;;81.65;67.97;;;8.80;99.90;;;;;;5081117;28;20176;-79
2023/10/17 08:27:13;;;;;;;94.40;83.50;;;8.90;99.90;;;;;;5081101;28;20164;-79
2023/10/17 08:29:43;;;;;;;84.82;66.03;;;8.80;99.90;;;;;;5088215;28;20168;-79
2023/10/17 08:32:38;;;;;;;79.85;63.60;;;8.90;99.90;;;;;;5086585;28;20181;-79
2023/10/17 08:37:59;;;;;;;79.13;59.88;;;9.00;99.90;;;;;;5042672;28;20172;-79
2023/10/17 08:40:31;;;;;;;74.68;53.17;;;9.10;99.90;;;;;;5086707;28;20153;-79
2023/10/17 08:43:15;;;;;;;79.63;59.97;;;9.10;99.90;;;;;;5086004;28;20188;-79
2023/10/17 08:45:41;;;;;;;78.72;60.47;;;9.00;99.90;;;;;;5085815;28;20171;-79
2023/10/17 08:48:11;;;;;;;79.28;63.83;;;9.00;99.90;;;;;;5066453;28;20226;-79
2023/10/17 08:50:39;;;;;;;75.60;60.75;;;8.90;99.90;;;;;;5068588;28;20187;-79
2023/10/17 08:53:13;;;;;;;69.97;49.85;;;9.00;99.90;;;;;;5087456;28;20234;-79
2023/10/17 08:55:40;;;;;;;85.43;75.75;;;9.00;99.90;;;;;;5085489;28;20234;-79
2023/10/17 08:58:09;;;;;;;74.25;53.50;;;9.00;99.90;;;;;;5086491;28;20165;-79
2023/10/17 09:03:20;;;;;;;72.25;52.10;;;9.20;99.90;;;;;;5084077;28;20203;-78
2023/10/17 09:11:14;;;;;;;74.28;51.72;;;9.40;99.90;;;;;;5085269;28;20173;-79
2023/10/17 09:16:14;;;;;;;70.45;50.40;;;9.50;93.70;;;;;;5082005;28;20215;-79
2023/10/17 09:18:54;;;;;;;69.90;49.50;;;9.50;91.90;;;;;;5082279;28;20264;-79
2023/10/17 09:21:20;;;;;;;70.50;51.25;;;9.70;85.70;;;;;;5081509;28;20149;-79
2023/10/17 09:23:46;;;;;;;76.05;50.95;;;9.70;65.80;;;;;;5063237;28;20208;-79
2023/10/17 09:26:19;;;;;;;71.20;51.73;;;9.80;66.80;;;;;;5082363;28;20557;-79
2023/10/17 09:28:47;;;;;;;77.53;53.10;;;9.80;59.40;;;;;;5081393;28;20874;-79
2023/10/17 09:31:15;;;;;;;69.75;48.90;;;9.80;43.00;;;;;;5081143;28;20160;-79
2023/10/17 09:33:45;;;;;;;72.80;54.65;;;9.80;47.60;;;;;;5081567;28;20189;-79
2023/10/17 09:36:18;;;;;;;68.97;49.97;;;9.80;24.90;;;;;;5081891;28;20187;-79
2023/10/17 09:38:46;;;;;;;68.85;48.42;;;9.80;21.60;;;;;;5084064;28;20487;-79
2023/10/17 09:41:18;;;;;;;70.03;50.88;;;9.90;23.40;;;;;;5085734;28;20157;-79
2023/10/17 09:44:02;;;;;;;67.97;46.50;;;9.90;13.80;;;;;;5084485;28;20180;-78
2023/10/17 09:46:31;;;;;;;66.05;39.08;;;9.90;13.50;;;;;;5084455;28;20144;-78
2023/10/17 09:49:03;;;;;;;73.85;49.60;;;10.00;15.10;;;;;;5083929;28;20243;-78
2023/10/17 09:51:33;;;;;;;73.43;53.72;;;10.00;23.00;;;;;;5085092;28;20161;-78
2023/10/17 09:54:01;;;;;;;67.78;43.17;;;10.00;10.80;;;;;;5083661;28;20188;-78
2023/10/17 09:56:36;;;;;;;66.97;42.40;;;10.00;16.30;;;;;;5083877;28;20559;-79
2023/10/17 09:59:11;;;;;;;77.20;53.30;;;10.00;7.20;;;;;;5086406;28;20153;-78
2023/10/17 10:01:39;;;;;;;69.50;48.60;;;9.90;5.80;;;;;;5084975;28;20178;-78
2023/10/17 10:04:07;;;;;;;75.43;45.88;;;9.90;10.10;;;;;;5084564;28;20173;-78
2023/10/17 10:06:36;;;;;;;68.78;48.50;;;10.00;13.00;;;;;;5082765;28;20199;-78
2023/10/17 10:09:47;;;;;;;66.53;41.28;;;9.90;2.90;;;;;;5083538;28;20180;-78
2023/10/17 10:11:51;;;;;;;66.32;44.88;;;10.00;9.10;;;;;;5071871;28;20207;-78
2023/10/17 10:14:40;;;;;;;64.57;38.97;;;10.20;1.00;;;;;;5084504;28;20176;-78
2023/10/17 10:17:08;;;;;;;66.25;45.58;;;10.20;1.00;;;;;;5083784;28;20149;-79
2023/10/17 10:19:46;;;;;;;66.47;43.20;;;10.10;1.00;;;;;;5084880;28;20160;-79
2023/10/17 10:22:14;;;;;;;64.25;39.03;;;10.10;1.00;;;;;;5084727;28;20204;-78
2023/10/17 10:24:41;;;;;;;64.78;39.03;;;10.20;1.00;;;;;;5082483;28;20527;-78
2023/10/17 10:27:19;;;;;;;64.78;41.35;;;10.30;1.00;;;;;;5082998;28;20226;-78
2023/10/17 10:29:52;;;;;;;66.60;39.83;;;10.50;1.00;;;;;;5083092;28;20175;-78
2023/10/17 10:32:42;;;;;;;61.85;35.30;;;10.90;1.00;;;;;;5083632;28;20190;-78
2023/10/17 10:35:08;;;;;;;63.53;31.95;;;11.10;1.00;;;;;;5082704;28;20176;-78
2023/10/17 10:37:52;;;;;;;63.57;37.80;;;11.30;1.00;;;;;;5064821;28;20584;-78
2023/10/17 10:40:22;;;;;;;58.70;31.58;;;11.40;1.00;;;;;;5082266;28;20164;-78
2023/10/17 10:42:49;;;;;;;61.75;29.70;;;11.60;1.00;;;;;;5081504;28;20229;-78
2023/10/17 10:45:47;;;;;;;61.78;35.63;;;11.60;1.00;;;;;;5081927;28;20668;-78
2023/10/17 10:48:14;;;;;;;58.47;27.25;;;11.60;1.00;;;;;;5081926;28;20153;-78
2023/10/17 10:50:45;;;;;;;59.40;33.10;;;11.80;1.00;;;;;;5062736;28;20173;-78
2023/10/17 10:53:21;;;;;;;60.33;30.42;;;12.10;1.00;;;;;;5081074;28;20184;-78
2023/10/17 10:56:09;;;;;;;61.22;33.80;;;11.90;1.00;;;;;;5081781;28;20278;-78
2023/10/17 10:58:48;;;;;;;59.85;32.40;;;12.00;1.00;;;;;;5081575;28;20137;-78
2023/10/17 11:01:14;;;;;;;59.50;29.20;;;12.20;1.00;;;;;;5081023;28;20145;-78
2023/10/17 11:03:41;;;;;;;58.70;33.58;;;12.10;1.00;;;;;;5080775;28;20197;-79
2023/10/17 11:06:08;;;;;;;60.72;37.05;;;12.10;1.00;;;;;;5080932;28;20264;-78
2023/10/17 11:08:46;;;;;;;59.58;28.35;;;12.00;1.00;;;;;;5081172;28;20173;-78
2023/10/17 11:11:14;;;;;;;58.95;32.72;;;12.10;1.00;;;;;;5081413;28;20334;-78
2023/10/17 11:13:48;;;;;;;56.17;26.08;;;12.20;1.00;;;;;;5080867;28;20553;-78
2023/10/17 11:16:24;;;;;;;56.80;29.58;;;12.40;1.00;;;;;;5081157;28;20196;-78
2023/10/17 11:18:50;;;;;;;56.83;29.02;;;12.40;1.00;;;;;;5082056;28;20145;-78
2023/10/17 11:21:21;;;;;;;56.30;32.60;;;12.30;1.00;;;;;;5081466;28;20632;-78
2023/10/17 11:23:59;;;;;;;57.42;31.70;;;12.30;1.00;;;;;;5063336;28;20200;-78
2023/10/17 11:26:39;;;;;;;55.55;26.02;;;12.30;1.00;;;;;;5082070;28;20164;-78
2023/10/17 11:29:07;;;;;;;55.38;28.48;;;12.50;1.00;;;;;;5088608;28;20221;-78
2023/10/17 11:31:33;;;;;;;55.67;27.33;;;12.50;1.00;;;;;;5083234;28;20282;-78
2023/10/17 11:34:12;;;;;;;57.17;33.92;;;12.70;1.00;;;;;;5082879;28;20191;-79
2023/10/17 11:36:52;;;;;;;54.08;28.40;;;12.70;1.00;;;;;;5084476;28;20661;-79
2023/10/17 11:39:24;;;;;;;53.90;28.67;;;12.70;1.00;;;;;;5086398;28;20746;-79
2023/10/17 11:41:55;;;;;;;50.92;18.02;;;12.80;1.00;;;;;;5081617;28;20375;-78
2023/10/17 11:44:25;;;;;;;54.78;26.75;;;13.10;1.00;;;;;;5063837;28;20161;-78
2023/10/17 11:47:03;;;;;;;52.50;22.30;;;13.20;1.00;;;;;;5081792;28;20247;-78
2023/10/17 11:49:35;;;;;;;54.00;29.80;;;13.50;1.00;;;;;;5081760;28;20387;-79
2023/10/17 11:52:09;;;;;;;53.07;28.00;;;13.30;1.00;;;;;;5082897;28;20409;-78
2023/10/17 11:54:57;;;;;;;53.10;27.60;;;13.20;1.00;;;;;;5083955;28;20395;-79
2023/10/17 11:57:25;;;;;;;52.90;29.57;;;13.30;1.00;;;;;;5066269;28;20422;-79
2023/10/17 12:00:06;;;;;;;52.97;27.20;;;13.40;1.00;;;;;;5084851;28;20403;-79
2023/10/17 12:02:31;;;;;;;50.10;31.40;;;13.30;1.00;;;;;;5085487;28;20490;-79
2023/10/17 12:05:00;;;;;;;51.97;24.50;;;13.40;1.00;;;;;;5084360;28;20414;-79
2023/10/17 12:07:26;;;;;;;50.13;24.15;;;13.40;1.00;;;;;;5083373;28;20219;-79
2023/10/17 12:10:02;;;;;;;49.50;23.87;;;13.30;1.00;;;;;;5083835;28;20168;-78
2023/10/17 12:12:28;;;;;;;51.07;27.90;;;13.30;1.00;;;;;;5082034;28;20246;-78
2023/10/17 12:14:54;;;;;;;49.97;21.13;;;13.40;1.00;;;;;;5080525;28;20406;-79
2023/10/17 12:17:21;;;;;;;47.87;21.20;;;13.40;1.00;;;;;;5080442;28;20803;-79
2023/10/17 12:19:47;;;;;;;47.00;26.67;;;13.20;1.00;;;;;;5080936;28;20402;-80
2023/10/17 12:22:12;;;;;;;39.30;18.17;;;13.30;1.00;;;;;;5063176;28;20845;-79
2023/10/17 12:24:38;;;;;;;46.33;17.60;;;13.40;1.00;;;;;;5080668;28;20205;-79
2023/10/17 12:27:06;;;;;;;48.27;19.57;;;13.30;1.00;;;;;;5080789;28;20903;-79
2023/10/17 12:29:34;;;;;;;44.90;16.43;;;13.30;1.00;;;;;;5080756;28;20180;-78
2023/10/17 12:32:01;;;;;;;46.80;17.60;;;13.30;1.00;;;;;;5080539;28;20422;-78
2023/10/17 12:34:27;;;;;;;45.47;15.33;;;13.50;1.00;;;;;;5079856;28;20829;-78
2023/10/17 12:36:56;;;;;;;46.03;16.77;;;13.50;1.00;;;;;;5078845;28;20515;-79
2023/10/17 12:39:23;;;;;;;46.27;18.30;;;13.40;1.00;;;;;;5080066;28;20415;-79
2023/10/17 12:41:49;;;;;;;44.70;15.10;;;13.50;1.00;;;;;;5079994;28;20400;-79
2023/10/17 12:44:18;;;;;;;45.10;15.30;;;13.50;1.00;;;;;;5061695;28;20478;-78
2023/10/17 12:46:44;;;;;;;45.97;16.00;;;13.40;1.00;;;;;;5079732;28;20161;-79
2023/10/17 12:49:14;;;;;;;43.80;14.57;;;13.40;1.00;;;;;;5080030;28;20403;-79
2023/10/17 12:51:41;;;;;;;43.97;14.70;;;13.60;1.00;;;;;;5079208;28;20403;-79
2023/10/17 12:54:07;;;;;;;43.43;13.67;;;13.70;1.00;;;;;;5080271;28;20793;-78
2023/10/17 12:56:36;;;;;;;43.37;14.13;;;13.50;1.00;;;;;;5088874;28;20442;-79
2023/10/17 12:59:12;;;;;;;45.97;17.20;;;13.30;1.00;;;;;;5084027;28;20403;-79
2023/10/17 13:01:40;;;;;;;50.20;18.00;;;13.30;1.00;;;;;;5084987;28;20402;-79
2023/10/17 13:04:07;;;;;;;44.70;15.47;;;13.30;1.00;;;;;;5086307;28;20469;-79
2023/10/17 13:06:34;;;;;;;49.40;20.57;;;13.30;1.00;;;;;;5066325;28;20417;-79
2023/10/17 13:09:00;;;;;;;45.47;19.10;;;13.30;1.00;;;;;;5069113;28;20414;-79
2023/10/17 13:11:27;;;;;;;45.10;19.00;;;13.40;1.00;;;;;;5086846;28;20434;-80
2023/10/17 13:13:53;;;;;;;45.37;15.30;;;13.30;1.00;;;;;;5073205;28;20427;-79
2023/10/17 13:16:23;;;;;;;44.40;17.10;;;13.40;1.00;;;;;;5072206;28;20454;-79
2023/10/17 13:18:50;;;;;;;46.58;18.00;;;13.40;1.00;;;;;;5072471;28;20418;-79
2023/10/17 13:21:19;;;;;;;43.20;13.37;;;13.40;1.00;;;;;;5089403;28;20160;-79
2023/10/17 13:23:44;;;;;;;43.20;15.30;;;13.40;1.00;;;;;;5071792;28;20864;-79
2023/10/17 13:26:11;;;;;;;42.57;12.77;;;13.50;1.00;;;;;;5090523;28;20409;-79
2023/10/17 13:28:38;;;;;;;43.63;14.93;;;13.50;1.00;;;;;;5089408;28;20168;-79
2023/10/17 13:31:16;;;;;;;42.47;14.67;;;13.50;1.00;;;;;;5088784;28;20232;-79
2023/10/17 13:33:43;;;;;;;42.60;14.93;;;13.50;1.00;;;;;;5089390;28;20484;-79
2023/10/17 13:36:20;;;;;;;45.13;13.37;;;13.50;1.00;;;;;;5088169;28;20447;-79
2023/10/17 13:38:46;;;;;;;42.20;14.17;;;13.40;1.00;;;;;;5086624;28;20447;-78
2023/10/17 13:41:15;;;;;;;43.27;15.77;;;13.30;1.00;;;;;;5086007;28;20409;-78
2023/10/17 13:43:42;;;;;;;43.05;15.13;;;13.30;1.00;;;;;;5084165;28;20414;-78
2023/10/17 13:46:09;;;;;;;42.20;12.50;;;13.30;1.00;;;;;;5084154;28;20159;-79
2023/10/17 13:48:36;;;;;;;42.77;12.20;;;13.20;1.00;;;;;;5082615;28;20165;-79
2023/10/17 13:51:09;;;;;;;40.20;14.07;;;13.30;1.00;;;;;;5083886;28;20805;-78
2023/10/17 13:53:36;;;;;;;37.78;8.40;;;13.40;1.00;;;;;;5064509;28;20426;-79
2023/10/17 13:56:16;;;;;;;43.15;10.48;;;13.40;1.00;;;;;;5083370;28;20619;-79
2023/10/17 13:58:42;;;;;;;35.75;7.10;;;13.40;1.00;;;;;;5083038;28;20557;-79
2023/10/17 14:03:56;;;;;;;37.53;9.18;;;13.30;1.00;;;;;;5083929;28;20417;-79
2023/10/17 14:06:22;;;;;;;38.85;11.27;;;13.30;1.00;;;;;;5082947;28;20264;-79
2023/10/17 14:08:49;;;;;;;39.10;10.83;;;13.30;1.00;;;;;;5064980;28;20175;-79
2023/10/17 14:11:17;;;;;;;39.37;13.00;;;13.30;1.00;;;;;;5083707;28;20415;-79
2023/10/17 14:13:46;;;;;;;39.58;10.85;;;13.30;1.00;;;;;;5082948;28;20442;-79
2023/10/17 14:16:12;;;;;;;38.47;10.90;;;13.20;1.00;;;;;;5082261;28;20188;-79
2023/10/17 14:18:43;;;;;;;39.30;8.97;;;13.20;1.00;;;;;;5082742;28;20630;-78
2023/10/17 14:21:34;;;;;;;38.23;9.47;;;13.20;1.00;;;;;;5083329;28;20390;-79
2023/10/17 14:24:07;;;;;;;38.17;7.75;;;13.30;1.00;;;;;;5086338;28;20442;-79
2023/10/17 14:26:33;;;;;;;41.03;12.13;;;13.30;1.00;;;;;;5072424;28;20165;-79
2023/10/17 14:29:07;;;;;;;50.75;21.15;;;13.20;1.00;;;;;;5089071;28;20411;-79
2023/10/17 14:31:32;;;;;;;43.97;15.35;;;13.20;1.00;;;;;;5072284;28;20224;-79
2023/10/17 14:33:59;;;;;;;39.70;10.37;;;13.20;1.00;;;;;;5089026;28;20193;-79
2023/10/17 14:36:27;;;;;;;39.83;8.88;;;13.20;1.00;;;;;;5088335;28;20219;-79
2023/10/17 14:38:53;;;;;;;38.17;8.60;;;13.30;1.00;;;;;;5088918;28;20176;-79
2023/10/17 14:41:19;;;;;;;36.40;9.07;;;13.30;1.00;;;;;;5069814;28;20414;-79
2023/10/17 14:43:49;;;;;;;37.47;8.10;;;13.30;1.00;;;;;;5087247;28;20783;-79
2023/10/17 14:46:16;;;;;;;36.15;7.60;;;13.40;1.00;;;;;;5086940;28;20177;-79
2023/10/17 14:48:42;;;;;;;37.70;8.17;;;13.30;1.00;;;;;;5069038;28;20184;-79
2023/10/17 14:51:09;;;;;;;39.80;9.77;;;13.40;1.00;;;;;;5087015;28;20398;-79
2023/10/17 14:53:35;;;;;;;36.50;10.33;;;13.40;1.00;;;;;;5069732;28;20192;-79
2023/10/17 14:56:04;;;;;;;37.80;9.47;;;13.40;1.00;;;;;;5070509;28;20469;-79
2023/10/17 14:58:33;;;;;;;39.53;12.55;;;13.50;1.00;;;;;;5088758;28;20403;-79
2023/10/17 15:01:00;;;;;;;38.63;9.85;;;13.50;1.00;;;;;;5088524;28;20171;-79
2023/10/17 15:03:25;;;;;;;38.97;11.32;;;13.50;1.00;;;;;;5088000;28;20176;-79
2023/10/17 15:05:55;;;;;;;36.43;8.57;;;13.50;1.00;;;;;;5087550;28;20225;-79
2023/10/17 15:08:21;;;;;;;41.23;8.37;;;13.60;1.00;;;;;;5087882;28;20534;-79
2023/10/17 15:10:48;;;;;;;33.60;7.23;;;13.70;1.00;;;;;;5087262;28;20408;-79
2023/10/17 15:13:14;;;;;;;36.20;7.60;;;13.70;1.00;;;;;;5087401;28;20181;-79
2023/10/17 15:15:41;;;;;;;37.67;9.47;;;13.60;1.00;;;;;;5086204;28;20453;-79
2023/10/17 15:18:08;;;;;;;36.80;7.70;;;13.60;1.00;;;;;;5067916;28;20830;-79
2023/10/17 15:20:33;;;;;;;37.50;8.63;;;13.40;1.00;;;;;;5085906;28;20406;-79
2023/10/17 15:23:01;;;;;;;37.17;9.10;;;13.50;1.00;;;;;;5085388;28;20423;-79
2023/10/17 15:25:27;;;;;;;37.35;8.27;;;13.40;1.00;;;;;;5067521;28;20505;-79
2023/10/17 15:27:55;;;;;;;37.97;9.30;;;13.30;1.00;;;;;;5084574;28;20240;-79